sensor_id;sensor_type;location;lat;lon;timestamp;pressure;altitude;pressure_sealevel;temperature;humidity
79028;BME280;68427;48.476;19.102;2023-04-24T00:01:47;96798.75;;;6.37;71.38
79028;BME280;68427;48.476;19.102;2023-04-24T00:04:14;96804.41;;;6.40;71.11
79028;BME280;68427;48.476;19.102;2023-04-24T00:06:41;96793.75;;;6.35;71.30
79028;BME280;68427;48.476;19.102;2023-04-24T00:09:08;96803.59;;;6.40;71.11
79028;BME280;68427;48.476;19.102;2023-04-24T00:11:35;96806.38;;;6.38;71.22
79028;BME280;68427;48.476;19.102;2023-04-24T00:14:01;96797.78;;;6.38;71.33
79028;BME280;68427;48.476;19.102;2023-04-24T00:16:26;96807.31;;;6.31;71.76
79028;BME280;68427;48.476;19.102;2023-04-24T00:18:53;96792.75;;;6.36;71.34
79028;BME280;68427;48.476;19.102;2023-04-24T00:21:20;96799.69;;;6.29;71.75
79028;BME280;68427;48.476;19.102;2023-04-24T00:23:47;96801.72;;;6.34;71.34
79028;BME280;68427;48.476;19.102;2023-04-24T00:26:12;96802.72;;;6.33;70.79
79028;BME280;68427;48.476;19.102;2023-04-24T00:28:38;96793.13;;;6.33;70.64
79028;BME280;68427;48.476;19.102;2023-04-24T00:31:04;96793.31;;;6.32;70.89
79028;BME280;68427;48.476;19.102;2023-04-24T00:33:30;96788.97;;;6.17;71.63
79028;BME280;68427;48.476;19.102;2023-04-24T00:35:55;96777.41;;;6.20;71.57
79028;BME280;68427;48.476;19.102;2023-04-24T00:38:22;96791.59;;;6.17;71.89
79028;BME280;68427;48.476;19.102;2023-04-24T00:40:48;96782.78;;;6.18;71.75
79028;BME280;68427;48.476;19.102;2023-04-24T00:43:15;96780.72;;;6.14;72.30
79028;BME280;68427;48.476;19.102;2023-04-24T00:45:41;96783.69;;;6.11;72.21
79028;BME280;68427;48.476;19.102;2023-04-24T00:48:07;96779.69;;;6.08;72.16
79028;BME280;68427;48.476;19.102;2023-04-24T00:50:33;96769.28;;;6.08;72.46
79028;BME280;68427;48.476;19.102;2023-04-24T00:52:58;96780.06;;;6.05;72.66
79028;BME280;68427;48.476;19.102;2023-04-24T00:55:26;96775.22;;;6.02;72.48
79028;BME280;68427;48.476;19.102;2023-04-24T00:57:51;96774.59;;;6.00;72.53
79028;BME280;68427;48.476;19.102;2023-04-24T01:00:18;96771.78;;;6.01;72.09
79028;BME280;68427;48.476;19.102;2023-04-24T01:02:44;96767.59;;;6.00;72.12
79028;BME280;68427;48.476;19.102;2023-04-24T01:05:11;96763.66;;;6.04;72.20
79028;BME280;68427;48.476;19.102;2023-04-24T01:07:38;96770.03;;;6.02;72.25
79028;BME280;68427;48.476;19.102;2023-04-24T01:10:05;96773.16;;;5.97;72.82
79028;BME280;68427;48.476;19.102;2023-04-24T01:12:34;96769.94;;;5.95;72.76
79028;BME280;68427;48.476;19.102;2023-04-24T01:14:59;96768.16;;;5.96;72.68
79028;BME280;68427;48.476;19.102;2023-04-24T01:17:25;96765.72;;;5.94;72.46
79028;BME280;68427;48.476;19.102;2023-04-24T01:19:51;96772.06;;;5.92;73.23
79028;BME280;68427;48.476;19.102;2023-04-24T01:22:23;96768.66;;;5.91;73.07
79028;BME280;68427;48.476;19.102;2023-04-24T01:24:49;96774.84;;;5.90;73.33
79028;BME280;68427;48.476;19.102;2023-04-24T01:27:15;96768.16;;;5.96;72.57
79028;BME280;68427;48.476;19.102;2023-04-24T01:29:41;96767.88;;;5.91;73.07
79028;BME280;68427;48.476;19.102;2023-04-24T01:32:06;96759.25;;;5.90;73.83
79028;BME280;68427;48.476;19.102;2023-04-24T01:34:32;96757.91;;;5.94;73.20
79028;BME280;68427;48.476;19.102;2023-04-24T01:36:59;96758.00;;;6.01;73.28
79028;BME280;68427;48.476;19.102;2023-04-24T01:39:26;96760.97;;;5.98;73.44
79028;BME280;68427;48.476;19.102;2023-04-24T01:41:53;96759.19;;;5.98;73.57
79028;BME280;68427;48.476;19.102;2023-04-24T01:44:19;96754.34;;;5.95;73.61
79028;BME280;68427;48.476;19.102;2023-04-24T01:46:45;96757.19;;;6.00;73.61
79028;BME280;68427;48.476;19.102;2023-04-24T01:49:11;96749.22;;;6.02;74.14
79028;BME280;68427;48.476;19.102;2023-04-24T01:51:37;96749.22;;;6.02;74.53
79028;BME280;68427;48.476;19.102;2023-04-24T01:54:02;96746.88;;;6.07;74.34
79028;BME280;68427;48.476;19.102;2023-04-24T01:56:30;96749.91;;;6.11;74.01
79028;BME280;68427;48.476;19.102;2023-04-24T01:58:56;96747.94;;;6.13;74.01
79028;BME280;68427;48.476;19.102;2023-04-24T02:01:23;96744.09;;;6.09;74.15
79028;BME280;68427;48.476;19.102;2023-04-24T02:03:49;96748.91;;;6.12;74.14
79028;BME280;68427;48.476;19.102;2023-04-24T02:06:15;96742.72;;;6.13;74.48
79028;BME280;68427;48.476;19.102;2023-04-24T02:08:40;96736.97;;;6.17;74.46
79028;BME280;68427;48.476;19.102;2023-04-24T02:11:06;96745.38;;;6.19;74.49
79028;BME280;68427;48.476;19.102;2023-04-24T02:13:35;96730.59;;;6.20;73.98
79028;BME280;68427;48.476;19.102;2023-04-24T02:16:01;96732.03;;;6.22;74.21
79028;BME280;68427;48.476;19.102;2023-04-24T02:18:26;96733.44;;;6.25;74.11
79028;BME280;68427;48.476;19.102;2023-04-24T02:20:53;96735.66;;;6.28;74.61
79028;BME280;68427;48.476;19.102;2023-04-24T02:23:19;96731.91;;;6.31;74.34
79028;BME280;68427;48.476;19.102;2023-04-24T02:25:44;96726.88;;;6.29;74.88
79028;BME280;68427;48.476;19.102;2023-04-24T02:28:11;96729.84;;;6.26;75.58
79028;BME280;68427;48.476;19.102;2023-04-24T02:30:38;96724.84;;;6.24;75.01
79028;BME280;68427;48.476;19.102;2023-04-24T02:33:03;96725.19;;;6.21;75.90
79028;BME280;68427;48.476;19.102;2023-04-24T02:35:29;96714.44;;;6.24;75.51
79028;BME280;68427;48.476;19.102;2023-04-24T02:37:55;96718.28;;;6.28;75.19
79028;BME280;68427;48.476;19.102;2023-04-24T02:40:21;96717.09;;;6.31;74.92
79028;BME280;68427;48.476;19.102;2023-04-24T02:42:46;96713.31;;;6.34;75.95
79028;BME280;68427;48.476;19.102;2023-04-24T02:45:12;96716.53;;;6.36;75.63
79028;BME280;68427;48.476;19.102;2023-04-24T02:47:39;96717.56;;;6.41;75.56
79028;BME280;68427;48.476;19.102;2023-04-24T02:50:06;96713.78;;;6.44;75.54
79028;BME280;68427;48.476;19.102;2023-04-24T02:52:32;96712.00;;;6.44;75.05
79028;BME280;68427;48.476;19.102;2023-04-24T02:54:58;96711.63;;;6.47;76.02
79028;BME280;68427;48.476;19.102;2023-04-24T02:57:24;96714.47;;;6.53;75.89
79028;BME280;68427;48.476;19.102;2023-04-24T02:59:49;96710.69;;;6.55;75.92
79028;BME280;68427;48.476;19.102;2023-04-24T03:02:15;96703.50;;;6.57;76.10
79028;BME280;68427;48.476;19.102;2023-04-24T03:04:42;96710.50;;;6.57;75.22
79028;BME280;68427;48.476;19.102;2023-04-24T03:07:08;96699.53;;;6.61;75.36
79028;BME280;68427;48.476;19.102;2023-04-24T03:09:41;96706.94;;;6.64;75.84
79028;BME280;68427;48.476;19.102;2023-04-24T03:12:06;96703.16;;;6.67;75.93
79028;BME280;68427;48.476;19.102;2023-04-24T03:14:32;96693.19;;;6.70;75.96
79028;BME280;68427;48.476;19.102;2023-04-24T03:16:58;96699.63;;;6.75;75.87
79028;BME280;68427;48.476;19.102;2023-04-24T03:19:24;96693.25;;;6.77;76.35
79028;BME280;68427;48.476;19.102;2023-04-24T03:21:51;96687.81;;;6.79;76.74
79028;BME280;68427;48.476;19.102;2023-04-24T03:24:16;96692.22;;;6.78;76.79
79028;BME280;68427;48.476;19.102;2023-04-24T03:26:42;96687.97;;;6.70;75.95
79028;BME280;68427;48.476;19.102;2023-04-24T03:29:08;96676.00;;;6.76;76.12
79028;BME280;68427;48.476;19.102;2023-04-24T03:31:33;96675.22;;;6.76;77.09
79028;BME280;68427;48.476;19.102;2023-04-24T03:33:59;96681.53;;;6.66;76.57
79028;BME280;68427;48.476;19.102;2023-04-24T03:36:25;96673.78;;;6.73;76.57
79028;BME280;68427;48.476;19.102;2023-04-24T03:38:52;96670.63;;;6.78;76.56
79028;BME280;68427;48.476;19.102;2023-04-24T03:41:18;96672.66;;;6.82;77.24
79028;BME280;68427;48.476;19.102;2023-04-24T03:43:44;96671.06;;;6.88;76.50
79028;BME280;68427;48.476;19.102;2023-04-24T03:46:10;96673.47;;;6.89;76.69
79028;BME280;68427;48.476;19.102;2023-04-24T03:48:35;96674.53;;;6.95;76.21
79028;BME280;68427;48.476;19.102;2023-04-24T03:51:01;96666.31;;;6.98;75.68
79028;BME280;68427;48.476;19.102;2023-04-24T03:53:27;96673.56;;;7.03;75.45
79028;BME280;68427;48.476;19.102;2023-04-24T03:55:54;96668.56;;;7.08;74.72
79028;BME280;68427;48.476;19.102;2023-04-24T03:58:20;96666.59;;;7.10;75.07
79028;BME280;68427;48.476;19.102;2023-04-24T04:00:46;96662.59;;;7.14;75.42
79028;BME280;68427;48.476;19.102;2023-04-24T04:03:13;96668.41;;;7.16;75.03
79028;BME280;68427;48.476;19.102;2023-04-24T04:05:39;96662.81;;;7.19;75.62
79028;BME280;68427;48.476;19.102;2023-04-24T04:08:05;96658.59;;;7.18;75.99
79028;BME280;68427;48.476;19.102;2023-04-24T04:10:31;96658.41;;;7.20;76.74
79028;BME280;68427;48.476;19.102;2023-04-24T04:12:58;96655.78;;;7.20;77.52
79028;BME280;68427;48.476;19.102;2023-04-24T04:15:24;96654.25;;;7.25;76.98
79028;BME280;68427;48.476;19.102;2023-04-24T04:17:49;96654.47;;;7.30;76.36
79028;BME280;68427;48.476;19.102;2023-04-24T04:20:22;96651.63;;;7.32;75.82
79028;BME280;68427;48.476;19.102;2023-04-24T04:23:03;96648.44;;;7.36;76.12
79028;BME280;68427;48.476;19.102;2023-04-24T04:25:35;96666.50;;;7.38;76.71
79028;BME280;68427;48.476;19.102;2023-04-24T04:28:02;96652.47;;;7.39;75.75
79028;BME280;68427;48.476;19.102;2023-04-24T04:30:27;96658.50;;;7.46;75.90
79028;BME280;68427;48.476;19.102;2023-04-24T04:32:54;96654.53;;;7.50;76.65
79028;BME280;68427;48.476;19.102;2023-04-24T04:35:20;96656.72;;;7.53;76.46
79028;BME280;68427;48.476;19.102;2023-04-24T04:37:46;96650.28;;;7.49;76.26
79028;BME280;68427;48.476;19.102;2023-04-24T04:40:12;96641.72;;;7.55;74.18
79028;BME280;68427;48.476;19.102;2023-04-24T04:42:37;96641.50;;;7.57;75.26
79028;BME280;68427;48.476;19.102;2023-04-24T04:45:08;96641.72;;;7.55;75.50
79028;BME280;68427;48.476;19.102;2023-04-24T04:47:34;96654.38;;;7.65;75.05
79028;BME280;68427;48.476;19.102;2023-04-24T04:50:00;96645.13;;;7.69;75.06
79028;BME280;68427;48.476;19.102;2023-04-24T04:52:26;96647.75;;;7.76;75.02
79028;BME280;68427;48.476;19.102;2023-04-24T04:54:52;96650.19;;;7.77;74.57
79028;BME280;68427;48.476;19.102;2023-04-24T04:57:18;96647.38;;;7.86;74.42
79028;BME280;68427;48.476;19.102;2023-04-24T04:59:44;96644.75;;;7.92;73.94
79028;BME280;68427;48.476;19.102;2023-04-24T05:02:11;96644.00;;;7.98;73.12
79028;BME280;68427;48.476;19.102;2023-04-24T05:04:37;96641.78;;;8.09;72.71
79028;BME280;68427;48.476;19.102;2023-04-24T05:07:02;96641.59;;;8.23;72.91
79028;BME280;68427;48.476;19.102;2023-04-24T05:09:28;96631.94;;;8.24;72.70
79028;BME280;68427;48.476;19.102;2023-04-24T05:11:54;96638.97;;;8.23;73.29
79028;BME280;68427;48.476;19.102;2023-04-24T05:14:20;96632.38;;;8.28;72.61
79028;BME280;68427;48.476;19.102;2023-04-24T05:16:47;96635.19;;;8.33;72.74
79028;BME280;68427;48.476;19.102;2023-04-24T05:19:14;96628.34;;;8.38;72.39
79028;BME280;68427;48.476;19.102;2023-04-24T05:21:40;96633.19;;;8.48;71.91
79028;BME280;68427;48.476;19.102;2023-04-24T05:24:06;96633.53;;;8.65;71.89
79028;BME280;68427;48.476;19.102;2023-04-24T05:26:32;96640.94;;;8.75;71.13
79028;BME280;68427;48.476;19.102;2023-04-24T05:28:58;96623.66;;;8.87;70.10
79028;BME280;68427;48.476;19.102;2023-04-24T05:31:24;96641.50;;;8.97;68.45
79028;BME280;68427;48.476;19.102;2023-04-24T05:33:50;96622.22;;;8.98;68.41
79028;BME280;68427;48.476;19.102;2023-04-24T05:36:17;96633.06;;;9.08;68.59
79028;BME280;68427;48.476;19.102;2023-04-24T05:38:43;96639.06;;;9.08;67.42
79028;BME280;68427;48.476;19.102;2023-04-24T05:41:09;96630.41;;;9.15;68.30
79028;BME280;68427;48.476;19.102;2023-04-24T05:43:35;96624.56;;;9.19;68.84
79028;BME280;68427;48.476;19.102;2023-04-24T05:46:00;96626.91;;;9.27;68.39
79028;BME280;68427;48.476;19.102;2023-04-24T05:48:26;96622.28;;;9.36;68.11
79028;BME280;68427;48.476;19.102;2023-04-24T05:50:52;96620.63;;;9.42;67.58
79028;BME280;68427;48.476;19.102;2023-04-24T05:53:19;96628.66;;;9.47;67.91
79028;BME280;68427;48.476;19.102;2023-04-24T05:55:45;96631.25;;;9.54;68.61
79028;BME280;68427;48.476;19.102;2023-04-24T05:58:11;96624.38;;;9.52;67.17
79028;BME280;68427;48.476;19.102;2023-04-24T06:00:37;96614.53;;;9.55;67.23
79028;BME280;68427;48.476;19.102;2023-04-24T06:03:05;96623.16;;;9.55;67.08
79028;BME280;68427;48.476;19.102;2023-04-24T06:05:30;96619.78;;;9.48;66.36
79028;BME280;68427;48.476;19.102;2023-04-24T06:07:56;96615.56;;;9.47;66.07
79028;BME280;68427;48.476;19.102;2023-04-24T06:10:23;96616.53;;;9.52;67.10
79028;BME280;68427;48.476;19.102;2023-04-24T06:12:49;96621.16;;;9.57;67.70
79028;BME280;68427;48.476;19.102;2023-04-24T06:15:15;96614.09;;;9.58;67.94
79028;BME280;68427;48.476;19.102;2023-04-24T06:17:41;96606.19;;;9.71;69.22
79028;BME280;68427;48.476;19.102;2023-04-24T06:20:07;96610.84;;;9.69;67.75
79028;BME280;68427;48.476;19.102;2023-04-24T06:22:33;96603.53;;;9.78;68.45
79028;BME280;68427;48.476;19.102;2023-04-24T06:24:59;96608.28;;;9.87;69.57
79028;BME280;68427;48.476;19.102;2023-04-24T06:27:27;96596.41;;;9.91;68.54
79028;BME280;68427;48.476;19.102;2023-04-24T06:29:52;96610.22;;;9.99;68.71
79028;BME280;68427;48.476;19.102;2023-04-24T06:32:21;96603.19;;;9.99;67.53
79028;BME280;68427;48.476;19.102;2023-04-24T06:34:46;96588.56;;;10.16;68.65
79028;BME280;68427;48.476;19.102;2023-04-24T06:37:12;96596.13;;;10.25;66.98
79028;BME280;68427;48.476;19.102;2023-04-24T06:39:38;96594.66;;;10.35;64.95
79028;BME280;68427;48.476;19.102;2023-04-24T06:42:03;96584.22;;;10.54;64.28
79028;BME280;68427;48.476;19.102;2023-04-24T06:44:31;96590.47;;;10.53;63.65
79028;BME280;68427;48.476;19.102;2023-04-24T06:46:56;96589.31;;;10.67;64.20
79028;BME280;68427;48.476;19.102;2023-04-24T06:49:22;96588.38;;;10.80;64.71
79028;BME280;68427;48.476;19.102;2023-04-24T06:51:48;96589.88;;;10.88;64.34
79028;BME280;68427;48.476;19.102;2023-04-24T06:54:13;96583.78;;;10.94;63.06
79028;BME280;68427;48.476;19.102;2023-04-24T06:56:39;96580.06;;;11.01;63.96
79028;BME280;68427;48.476;19.102;2023-04-24T06:59:05;96581.22;;;11.06;64.82
79028;BME280;68427;48.476;19.102;2023-04-24T07:01:32;96586.56;;;10.99;65.76
79028;BME280;68427;48.476;19.102;2023-04-24T07:03:57;96592.13;;;11.02;65.51
79028;BME280;68427;48.476;19.102;2023-04-24T07:06:23;96586.09;;;11.02;64.36
79028;BME280;68427;48.476;19.102;2023-04-24T07:08:49;96587.94;;;11.01;64.48
79028;BME280;68427;48.476;19.102;2023-04-24T07:11:15;96598.09;;;11.10;64.29
79028;BME280;68427;48.476;19.102;2023-04-24T07:13:41;96597.66;;;11.13;64.91
79028;BME280;68427;48.476;19.102;2023-04-24T07:16:09;96585.50;;;11.18;64.12
79028;BME280;68427;48.476;19.102;2023-04-24T07:18:37;96584.97;;;11.28;63.68
79028;BME280;68427;48.476;19.102;2023-04-24T07:21:04;96586.47;;;11.36;63.08
79028;BME280;68427;48.476;19.102;2023-04-24T07:23:30;96590.28;;;11.40;62.44
79028;BME280;68427;48.476;19.102;2023-04-24T07:25:56;96589.69;;;11.38;64.07
79028;BME280;68427;48.476;19.102;2023-04-24T07:28:22;96584.81;;;11.41;64.73
79028;BME280;68427;48.476;19.102;2023-04-24T07:30:48;96591.66;;;11.42;64.71
79028;BME280;68427;48.476;19.102;2023-04-24T07:33:13;96593.22;;;11.32;62.79
79028;BME280;68427;48.476;19.102;2023-04-24T07:35:40;96583.38;;;11.27;63.24
79028;BME280;68427;48.476;19.102;2023-04-24T07:38:06;96588.91;;;11.37;63.27
79028;BME280;68427;48.476;19.102;2023-04-24T07:40:32;96586.31;;;11.49;63.25
79028;BME280;68427;48.476;19.102;2023-04-24T07:42:58;96596.84;;;11.61;63.86
79028;BME280;68427;48.476;19.102;2023-04-24T07:45:24;96602.66;;;11.63;62.31
79028;BME280;68427;48.476;19.102;2023-04-24T07:47:51;96597.19;;;11.64;62.90
79028;BME280;68427;48.476;19.102;2023-04-24T07:50:17;96598.34;;;11.68;61.99
79028;BME280;68427;48.476;19.102;2023-04-24T07:52:44;96595.03;;;11.73;62.81
79028;BME280;68427;48.476;19.102;2023-04-24T07:55:10;96611.75;;;11.79;61.97
79028;BME280;68427;48.476;19.102;2023-04-24T07:57:36;96620.16;;;11.81;61.69
79028;BME280;68427;48.476;19.102;2023-04-24T08:00:03;96610.50;;;11.81;61.25
79028;BME280;68427;48.476;19.102;2023-04-24T08:02:29;96600.00;;;11.81;60.30
79028;BME280;68427;48.476;19.102;2023-04-24T08:04:54;96598.31;;;11.87;60.30
79028;BME280;68427;48.476;19.102;2023-04-24T08:07:21;96587.22;;;11.85;60.75
79028;BME280;68427;48.476;19.102;2023-04-24T08:09:48;96594.50;;;11.83;62.23
79028;BME280;68427;48.476;19.102;2023-04-24T08:12:14;96590.06;;;11.83;62.45
79028;BME280;68427;48.476;19.102;2023-04-24T08:14:40;96588.41;;;11.89;62.18
79028;BME280;68427;48.476;19.102;2023-04-24T08:17:05;96582.03;;;11.97;61.52
79028;BME280;68427;48.476;19.102;2023-04-24T08:19:31;96581.09;;;11.91;63.62
79028;BME280;68427;48.476;19.102;2023-04-24T08:21:57;96578.16;;;11.99;62.89
79028;BME280;68427;48.476;19.102;2023-04-24T08:24:23;96573.69;;;12.00;62.83
79028;BME280;68427;48.476;19.102;2023-04-24T08:26:50;96572.22;;;12.16;63.28
79028;BME280;68427;48.476;19.102;2023-04-24T08:29:16;96572.13;;;12.22;61.43
79028;BME280;68427;48.476;19.102;2023-04-24T08:31:42;96567.31;;;12.19;61.75
79028;BME280;68427;48.476;19.102;2023-04-24T08:34:09;96571.06;;;12.23;63.08
79028;BME280;68427;48.476;19.102;2023-04-24T08:36:34;96575.31;;;12.24;63.82
79028;BME280;68427;48.476;19.102;2023-04-24T08:39:00;96574.28;;;12.25;62.19
79028;BME280;68427;48.476;19.102;2023-04-24T08:41:27;96581.94;;;12.27;62.08
79028;BME280;68427;48.476;19.102;2023-04-24T08:43:54;96584.00;;;12.25;63.59
79028;BME280;68427;48.476;19.102;2023-04-24T08:46:24;96579.88;;;12.17;64.39
79028;BME280;68427;48.476;19.102;2023-04-24T08:48:50;96599.03;;;12.18;66.85
79028;BME280;68427;48.476;19.102;2023-04-24T08:51:17;96594.34;;;12.08;68.07
79028;BME280;68427;48.476;19.102;2023-04-24T08:53:45;96591.84;;;12.13;68.25
79028;BME280;68427;48.476;19.102;2023-04-24T08:56:11;96593.47;;;12.14;68.01
79028;BME280;68427;48.476;19.102;2023-04-24T08:58:38;96596.16;;;11.96;67.84
79028;BME280;68427;48.476;19.102;2023-04-24T09:01:05;96603.31;;;11.88;67.59
79028;BME280;68427;48.476;19.102;2023-04-24T09:03:33;96598.50;;;11.85;67.84
79028;BME280;68427;48.476;19.102;2023-04-24T09:06:00;96600.78;;;11.82;69.67
79028;BME280;68427;48.476;19.102;2023-04-24T09:08:32;96604.69;;;11.61;70.63
79028;BME280;68427;48.476;19.102;2023-04-24T09:10:59;96598.31;;;11.57;70.31
79028;BME280;68427;48.476;19.102;2023-04-24T09:13:27;96609.41;;;11.71;72.42
79028;BME280;68427;48.476;19.102;2023-04-24T09:15:53;96605.91;;;11.77;72.49
79028;BME280;68427;48.476;19.102;2023-04-24T09:18:21;96596.53;;;11.81;74.02
79028;BME280;68427;48.476;19.102;2023-04-24T09:21:00;96603.03;;;11.66;74.39
79028;BME280;68427;48.476;19.102;2023-04-24T09:23:28;96600.53;;;11.72;76.56
79028;BME280;68427;48.476;19.102;2023-04-24T09:25:54;96598.72;;;11.72;76.12
79028;BME280;68427;48.476;19.102;2023-04-24T09:28:25;96601.66;;;11.76;76.79
79028;BME280;68427;48.476;19.102;2023-04-24T09:31:02;96599.63;;;11.78;76.74
79028;BME280;68427;48.476;19.102;2023-04-24T09:33:29;96601.47;;;11.77;76.46
79028;BME280;68427;48.476;19.102;2023-04-24T09:35:55;96600.88;;;11.75;77.89
79028;BME280;68427;48.476;19.102;2023-04-24T09:38:30;96608.41;;;11.72;77.99
79028;BME280;68427;48.476;19.102;2023-04-24T09:40:59;96599.16;;;11.69;77.85
79028;BME280;68427;48.476;19.102;2023-04-24T09:43:26;96603.81;;;11.67;76.99
79028;BME280;68427;48.476;19.102;2023-04-24T09:45:55;96601.75;;;11.57;76.43
79028;BME280;68427;48.476;19.102;2023-04-24T09:48:31;96595.31;;;11.53;75.61
79028;BME280;68427;48.476;19.102;2023-04-24T09:50:57;96597.47;;;11.44;76.75
79028;BME280;68427;48.476;19.102;2023-04-24T09:53:24;96590.63;;;11.43;76.76
79028;BME280;68427;48.476;19.102;2023-04-24T09:55:50;96592.22;;;11.44;77.04
79028;BME280;68427;48.476;19.102;2023-04-24T09:58:26;96604.66;;;11.19;77.62
79028;BME280;68427;48.476;19.102;2023-04-24T10:00:53;96607.19;;;11.25;77.75
79028;BME280;68427;48.476;19.102;2023-04-24T10:03:19;96598.53;;;11.25;77.36
79028;BME280;68427;48.476;19.102;2023-04-24T10:05:47;96595.03;;;11.31;78.19
79028;BME280;68427;48.476;19.102;2023-04-24T10:08:13;96591.38;;;11.32;77.53
79028;BME280;68427;48.476;19.102;2023-04-24T10:10:42;96599.97;;;11.21;78.12
79028;BME280;68427;48.476;19.102;2023-04-24T10:13:10;96595.97;;;11.18;77.66
79028;BME280;68427;48.476;19.102;2023-04-24T10:15:35;96587.44;;;11.23;77.69
79028;BME280;68427;48.476;19.102;2023-04-24T10:18:02;96583.59;;;11.25;77.91
79028;BME280;68427;48.476;19.102;2023-04-24T10:20:29;96587.59;;;11.28;76.30
79028;BME280;68427;48.476;19.102;2023-04-24T10:22:58;96576.22;;;11.34;76.74
79028;BME280;68427;48.476;19.102;2023-04-24T10:25:26;96580.56;;;11.40;76.63
79028;BME280;68427;48.476;19.102;2023-04-24T10:27:53;96592.44;;;11.43;76.82
79028;BME280;68427;48.476;19.102;2023-04-24T10:30:23;96588.22;;;11.42;77.09
79028;BME280;68427;48.476;19.102;2023-04-24T10:32:49;96594.47;;;11.41;77.94
79028;BME280;68427;48.476;19.102;2023-04-24T10:35:16;96593.56;;;11.35;78.17
79028;BME280;68427;48.476;19.102;2023-04-24T10:37:45;96598.13;;;11.40;78.10
79028;BME280;68427;48.476;19.102;2023-04-24T10:40:17;96591.66;;;11.42;77.25
79028;BME280;68427;48.476;19.102;2023-04-24T10:42:47;96595.56;;;11.52;77.76
79028;BME280;68427;48.476;19.102;2023-04-24T10:45:22;96589.94;;;11.48;76.87
79028;BME280;68427;48.476;19.102;2023-04-24T10:47:53;96588.84;;;11.56;76.72
79028;BME280;68427;48.476;19.102;2023-04-24T10:50:19;96578.25;;;11.62;77.48
79028;BME280;68427;48.476;19.102;2023-04-24T10:52:45;96577.59;;;11.67;77.22
79028;BME280;68427;48.476;19.102;2023-04-24T10:55:13;96569.63;;;11.85;76.01
79028;BME280;68427;48.476;19.102;2023-04-24T10:58:01;96574.25;;;12.14;75.52
79028;BME280;68427;48.476;19.102;2023-04-24T11:00:27;96576.22;;;12.18;74.97
79028;BME280;68427;48.476;19.102;2023-04-24T11:02:53;96581.25;;;12.43;74.20
79028;BME280;68427;48.476;19.102;2023-04-24T11:05:20;96578.41;;;12.57;73.74
79028;BME280;68427;48.476;19.102;2023-04-24T11:08:11;96578.03;;;12.77;73.92
79028;BME280;68427;48.476;19.102;2023-04-24T11:10:40;96571.72;;;12.89;73.65
79028;BME280;68427;48.476;19.102;2023-04-24T11:13:06;96573.50;;;13.01;74.63
79028;BME280;68427;48.476;19.102;2023-04-24T11:15:32;96574.41;;;13.06;72.93
79028;BME280;68427;48.476;19.102;2023-04-24T11:17:58;96579.94;;;13.22;72.69
79028;BME280;68427;48.476;19.102;2023-04-24T11:20:25;96575.16;;;13.30;69.52
79028;BME280;68427;48.476;19.102;2023-04-24T11:22:53;96577.84;;;13.47;71.00
79028;BME280;68427;48.476;19.102;2023-04-24T11:25:21;96579.28;;;13.55;70.26
79028;BME280;68427;48.476;19.102;2023-04-24T11:27:49;96576.41;;;13.56;69.75
79028;BME280;68427;48.476;19.102;2023-04-24T11:30:17;96582.19;;;13.42;69.50
79028;BME280;68427;48.476;19.102;2023-04-24T11:32:43;96576.31;;;13.34;70.90
79028;BME280;68427;48.476;19.102;2023-04-24T11:35:14;96577.88;;;13.24;71.64
79028;BME280;68427;48.476;19.102;2023-04-24T11:37:43;96574.84;;;13.15;70.36
79028;BME280;68427;48.476;19.102;2023-04-24T11:40:12;96565.78;;;13.23;70.72
79028;BME280;68427;48.476;19.102;2023-04-24T11:42:40;96567.06;;;13.32;70.38
79028;BME280;68427;48.476;19.102;2023-04-24T11:45:12;96567.56;;;13.46;70.21
79028;BME280;68427;48.476;19.102;2023-04-24T11:47:38;96557.69;;;13.53;70.54
79028;BME280;68427;48.476;19.102;2023-04-24T11:50:06;96557.47;;;13.54;70.61
79028;BME280;68427;48.476;19.102;2023-04-24T11:52:33;96552.13;;;13.66;69.89
79028;BME280;68427;48.476;19.102;2023-04-24T11:55:02;96556.34;;;13.67;70.12
79028;BME280;68427;48.476;19.102;2023-04-24T11:57:29;96556.19;;;13.57;71.20
79028;BME280;68427;48.476;19.102;2023-04-24T11:59:59;96550.56;;;13.53;71.23
79028;BME280;68427;48.476;19.102;2023-04-24T12:02:27;96553.28;;;13.58;70.67
79028;BME280;68427;48.476;19.102;2023-04-24T12:04:53;96549.56;;;13.54;71.44
79028;BME280;68427;48.476;19.102;2023-04-24T12:07:19;96545.75;;;13.62;71.86
79028;BME280;68427;48.476;19.102;2023-04-24T12:09:46;96546.03;;;13.49;71.15
79028;BME280;68427;48.476;19.102;2023-04-24T12:12:12;96544.88;;;13.28;72.29
79028;BME280;68427;48.476;19.102;2023-04-24T12:14:47;96542.59;;;13.19;71.42
79028;BME280;68427;48.476;19.102;2023-04-24T12:17:13;96544.41;;;13.19;72.38
79028;BME280;68427;48.476;19.102;2023-04-24T12:19:45;96540.31;;;13.11;72.33
79028;BME280;68427;48.476;19.102;2023-04-24T12:22:11;96533.59;;;13.04;72.14
79028;BME280;68427;48.476;19.102;2023-04-24T12:24:55;96534.66;;;13.03;72.44
79028;BME280;68427;48.476;19.102;2023-04-24T12:27:22;96540.13;;;13.01;73.57
79028;BME280;68427;48.476;19.102;2023-04-24T12:29:51;96538.75;;;12.98;73.04
79028;BME280;68427;48.476;19.102;2023-04-24T12:32:17;96534.88;;;13.01;72.77
79028;BME280;68427;48.476;19.102;2023-04-24T12:34:45;96529.16;;;13.04;72.79
79028;BME280;68427;48.476;19.102;2023-04-24T12:37:10;96532.50;;;13.00;72.91
79028;BME280;68427;48.476;19.102;2023-04-24T12:39:36;96536.03;;;12.93;73.56
79028;BME280;68427;48.476;19.102;2023-04-24T12:42:02;96527.84;;;12.90;73.09
79028;BME280;68427;48.476;19.102;2023-04-24T12:44:32;96531.72;;;12.87;73.32
79028;BME280;68427;48.476;19.102;2023-04-24T12:46:59;96521.00;;;12.77;73.84
79028;BME280;68427;48.476;19.102;2023-04-24T12:49:25;96519.88;;;12.73;73.64
79028;BME280;68427;48.476;19.102;2023-04-24T12:51:52;96520.81;;;12.67;73.60
79028;BME280;68427;48.476;19.102;2023-04-24T12:54:18;96519.78;;;12.68;73.78